sensor_id;sensor_type;location;lat;lon;timestamp;temperature;humidity
15676;DHT22;7938;47.666;9.434;2023-09-30T04:02:49;15.50;99.90
15676;DHT22;7938;47.666;9.434;2023-09-30T04:05:20;15.40;99.90
15676;DHT22;7938;47.666;9.434;2023-09-30T04:07:51;15.40;99.90
15676;DHT22;7938;47.666;9.434;2023-09-30T04:10:18;15.40;99.90
15676;DHT22;7938;47.666;9.434;2023-09-30T04:12:45;15.40;99.90
15676;DHT22;7938;47.666;9.434;2023-09-30T04:17:39;15.60;99.90
15676;DHT22;7938;47.666;9.434;2023-09-30T04:20:08;15.60;99.90
15676;DHT22;7938;47.666;9.434;2023-09-30T04:22:41;15.60;99.90
15676;DHT22;7938;47.666;9.434;2023-09-30T04:25:11;15.70;99.90
15676;DHT22;7938;47.666;9.434;2023-09-30T04:27:41;15.90;99.90
15676;DHT22;7938;47.666;9.434;2023-09-30T04:30:11;15.90;99.90
15676;DHT22;7938;47.666;9.434;2023-09-30T04:32:40;15.90;99.90
15676;DHT22;7938;47.666;9.434;2023-09-30T04:35:09;16.00;99.90
15676;DHT22;7938;47.666;9.434;2023-09-30T04:37:36;16.00;99.90
15676;DHT22;7938;47.666;9.434;2023-09-30T04:40:04;15.90;99.90
15676;DHT22;7938;47.666;9.434;2023-09-30T04:42:35;15.80;99.90
15676;DHT22;7938;47.666;9.434;2023-09-30T04:45:02;15.70;99.90
15676;DHT22;7938;47.666;9.434;2023-09-30T04:47:32;15.70;99.90
15676;DHT22;7938;47.666;9.434;2023-09-30T04:49:59;15.80;99.90
15676;DHT22;7938;47.666;9.434;2023-09-30T04:52:31;15.60;99.90
15676;DHT22;7938;47.666;9.434;2023-09-30T04:54:58;15.70;99.90
15676;DHT22;7938;47.666;9.434;2023-09-30T04:57:25;15.80;99.90
15676;DHT22;7938;47.666;9.434;2023-09-30T04:59:52;16.00;99.90
15676;DHT22;7938;47.666;9.434;2023-09-30T05:02:20;16.00;99.90
15676;DHT22;7938;47.666;9.434;2023-09-30T05:04:47;16.20;99.90
15676;DHT22;7938;47.666;9.434;2023-09-30T05:07:14;16.30;99.90
15676;DHT22;7938;47.666;9.434;2023-09-30T05:09:42;16.00;99.90
15676;DHT22;7938;47.666;9.434;2023-09-30T05:12:09;15.90;99.90
15676;DHT22;7938;47.666;9.434;2023-09-30T05:14:36;15.90;99.90
15676;DHT22;7938;47.666;9.434;2023-09-30T05:17:04;15.80;99.90
15676;DHT22;7938;47.666;9.434;2023-09-30T05:19:31;15.80;99.90
15676;DHT22;7938;47.666;9.434;2023-09-30T05:21:58;15.60;99.90
15676;DHT22;7938;47.666;9.434;2023-09-30T05:51:35;15.50;99.90
15676;DHT22;7938;47.666;9.434;2023-09-30T05:54:02;15.60;99.90
15676;DHT22;7938;47.666;9.434;2023-09-30T05:56:30;15.60;99.90
15676;DHT22;7938;47.666;9.434;2023-09-30T05:58:58;15.50;99.90
15676;DHT22;7938;47.666;9.434;2023-09-30T06:01:26;15.50;99.90
15676;DHT22;7938;47.666;9.434;2023-09-30T06:03:53;15.50;99.90
15676;DHT22;7938;47.666;9.434;2023-09-30T06:08:49;15.60;99.90
15676;DHT22;7938;47.666;9.434;2023-09-30T06:11:16;15.90;99.90
15676;DHT22;7938;47.666;9.434;2023-09-30T06:13:44;15.90;99.90
15676;DHT22;7938;47.666;9.434;2023-09-30T06:16:11;15.90;99.90
15676;DHT22;7938;47.666;9.434;2023-09-30T06:18:40;15.90;99.90
15676;DHT22;7938;47.666;9.434;2023-09-30T06:21:06;15.80;99.90
15676;DHT22;7938;47.666;9.434;2023-09-30T06:23:35;15.90;99.90
15676;DHT22;7938;47.666;9.434;2023-09-30T06:26:02;15.80;99.90
15676;DHT22;7938;47.666;9.434;2023-09-30T06:28:29;16.00;99.90
15676;DHT22;7938;47.666;9.434;2023-09-30T06:30:59;16.10;99.90
15676;DHT22;7938;47.666;9.434;2023-09-30T06:33:26;16.10;99.90
15676;DHT22;7938;47.666;9.434;2023-09-30T06:35:56;16.10;99.90
15676;DHT22;7938;47.666;9.434;2023-09-30T06:38:27;16.20;99.90
15676;DHT22;7938;47.666;9.434;2023-09-30T06:40:54;16.10;99.90
15676;DHT22;7938;47.666;9.434;2023-09-30T06:43:22;16.30;99.90
15676;DHT22;7938;47.666;9.434;2023-09-30T06:45:48;16.40;99.90
15676;DHT22;7938;47.666;9.434;2023-09-30T06:50:46;16.30;99.90
15676;DHT22;7938;47.666;9.434;2023-09-30T06:53:15;16.20;99.90
15676;DHT22;7938;47.666;9.434;2023-09-30T06:55:42;16.50;99.90
15676;DHT22;7938;47.666;9.434;2023-09-30T06:58:09;16.40;99.90
15676;DHT22;7938;47.666;9.434;2023-09-30T07:00:37;16.40;99.90
15676;DHT22;7938;47.666;9.434;2023-09-30T07:03:04;16.40;99.90
15676;DHT22;7938;47.666;9.434;2023-09-30T07:05:31;16.80;99.90
15676;DHT22;7938;47.666;9.434;2023-09-30T07:07:58;16.90;99.90
15676;DHT22;7938;47.666;9.434;2023-09-30T07:10:27;16.80;99.90
15676;DHT22;7938;47.666;9.434;2023-09-30T07:12:54;17.00;99.90
15676;DHT22;7938;47.666;9.434;2023-09-30T07:15:22;16.80;99.90
15676;DHT22;7938;47.666;9.434;2023-09-30T07:17:49;16.50;99.90
15676;DHT22;7938;47.666;9.434;2023-09-30T07:20:15;16.80;99.90
15676;DHT22;7938;47.666;9.434;2023-09-30T07:22:43;16.90;99.90
15676;DHT22;7938;47.666;9.434;2023-09-30T07:25:10;17.10;99.90
15676;DHT22;7938;47.666;9.434;2023-09-30T07:27:38;17.20;99.90
15676;DHT22;7938;47.666;9.434;2023-09-30T07:30:06;17.60;99.90
15676;DHT22;7938;47.666;9.434;2023-09-30T07:47:20;17.60;99.90
15676;DHT22;7938;47.666;9.434;2023-09-30T07:52:14;17.40;99.90
15676;DHT22;7938;47.666;9.434;2023-09-30T07:54:41;17.40;99.90
15676;DHT22;7938;47.666;9.434;2023-09-30T07:57:08;17.60;99.90
15676;DHT22;7938;47.666;9.434;2023-09-30T08:02:04;17.60;99.90
15676;DHT22;7938;47.666;9.434;2023-09-30T08:04:32;17.60;99.90
15676;DHT22;7938;47.666;9.434;2023-09-30T08:06:59;17.90;99.90
15676;DHT22;7938;47.666;9.434;2023-09-30T08:09:26;17.60;99.90
15676;DHT22;7938;47.666;9.434;2023-09-30T08:11:53;17.50;99.90
15676;DHT22;7938;47.666;9.434;2023-09-30T08:14:21;17.40;99.90
15676;DHT22;7938;47.666;9.434;2023-09-30T08:16:48;17.40;99.90
15676;DHT22;7938;47.666;9.434;2023-09-30T08:19:17;17.40;99.90
15676;DHT22;7938;47.666;9.434;2023-09-30T08:29:08;17.70;99.90
15676;DHT22;7938;47.666;9.434;2023-09-30T08:31:35;18.20;99.90
15676;DHT22;7938;47.666;9.434;2023-09-30T08:41:31;18.50;99.90
15676;DHT22;7938;47.666;9.434;2023-09-30T08:44:00;18.90;99.90
15676;DHT22;7938;47.666;9.434;2023-09-30T08:46:30;18.50;99.90
15676;DHT22;7938;47.666;9.434;2023-09-30T08:51:26;18.30;99.90
15676;DHT22;7938;47.666;9.434;2023-09-30T08:53:56;18.30;99.90
15676;DHT22;7938;47.666;9.434;2023-09-30T08:56:27;18.30;99.90
15676;DHT22;7938;47.666;9.434;2023-09-30T08:58:56;18.70;99.90
15676;DHT22;7938;47.666;9.434;2023-09-30T09:03:51;18.80;99.90
15676;DHT22;7938;47.666;9.434;2023-09-30T09:06:19;18.60;99.90
15676;DHT22;7938;47.666;9.434;2023-09-30T09:08:46;18.80;99.90
15676;DHT22;7938;47.666;9.434;2023-09-30T09:11:15;18.80;99.90
15676;DHT22;7938;47.666;9.434;2023-09-30T09:13:49;18.60;99.90
15676;DHT22;7938;47.666;9.434;2023-09-30T09:16:19;19.00;99.90
15676;DHT22;7938;47.666;9.434;2023-09-30T09:18:45;19.00;99.90
15676;DHT22;7938;47.666;9.434;2023-09-30T09:21:14;18.90;99.90
15676;DHT22;7938;47.666;9.434;2023-09-30T09:23:46;19.00;99.90
15676;DHT22;7938;47.666;9.434;2023-09-30T09:26:24;19.30;99.90
15676;DHT22;7938;47.666;9.434;2023-09-30T09:43:44;19.40;99.90
15676;DHT22;7938;47.666;9.434;2023-09-30T09:48:39;19.50;99.90
15676;DHT22;7938;47.666;9.434;2023-09-30T10:03:32;20.10;99.90
15676;DHT22;7938;47.666;9.434;2023-09-30T10:06:00;20.10;99.90
15676;DHT22;7938;47.666;9.434;2023-09-30T10:08:33;20.10;99.90
15676;DHT22;7938;47.666;9.434;2023-09-30T10:11:02;20.40;99.90
15676;DHT22;7938;47.666;9.434;2023-09-30T10:13:53;20.40;99.90
15676;DHT22;7938;47.666;9.434;2023-09-30T11:00:52;20.70;99.90
15676;DHT22;7938;47.666;9.434;2023-09-30T11:13:17;20.90;99.90
15676;DHT22;7938;47.666;9.434;2023-09-30T11:25:39;21.00;99.90
15676;DHT22;7938;47.666;9.434;2023-09-30T12:50:14;22.20;99.90
15676;DHT22;7938;47.666;9.434;2023-09-30T13:07:31;22.60;99.90
15676;DHT22;7938;47.666;9.434;2023-09-30T13:12:27;23.30;99.90
15676;DHT22;7938;47.666;9.434;2023-09-30T13:24:46;22.80;99.90
15676;DHT22;7938;47.666;9.434;2023-09-30T13:27:13;22.70;99.90
15676;DHT22;7938;47.666;9.434;2023-09-30T13:29:41;22.90;99.90
15676;DHT22;7938;47.666;9.434;2023-09-30T13:32:09;22.80;99.90
15676;DHT22;7938;47.666;9.434;2023-09-30T13:39:30;22.90;99.90
15676;DHT22;7938;47.666;9.434;2023-09-30T13:42:00;22.70;99.90
15676;DHT22;7938;47.666;9.434;2023-09-30T13:44:28;22.80;99.90
15676;DHT22;7938;47.666;9.434;2023-09-30T13:51:49;23.00;99.90
15676;DHT22;7938;47.666;9.434;2023-09-30T13:54:16;23.30;99.90
15676;DHT22;7938;47.666;9.434;2023-09-30T13:56:42;22.70;99.90
15676;DHT22;7938;47.666;9.434;2023-09-30T13:59:11;22.60;99.90
15676;DHT22;7938;47.666;9.434;2023-09-30T14:04:07;22.40;99.90
15676;DHT22;7938;47.666;9.434;2023-09-30T14:06:33;22.30;99.90
15676;DHT22;7938;47.666;9.434;2023-09-30T14:09:00;22.40;99.90
15676;DHT22;7938;47.666;9.434;2023-09-30T14:28:40;23.40;99.90
15676;DHT22;7938;47.666;9.434;2023-09-30T15:10:34;23.60;99.90
15676;DHT22;7938;47.666;9.434;2023-09-30T15:57:18;22.90;99.90
15676;DHT22;7938;47.666;9.434;2023-09-30T15:59:45;22.90;99.90
15676;DHT22;7938;47.666;9.434;2023-09-30T16:02:13;22.80;99.90
15676;DHT22;7938;47.666;9.434;2023-09-30T16:09:34;23.00;99.90
15676;DHT22;7938;47.666;9.434;2023-09-30T16:46:30;19.20;99.90
15676;DHT22;7938;47.666;9.434;2023-09-30T16:48:56;18.80;99.90
15676;DHT22;7938;47.666;9.434;2023-09-30T16:51:25;19.00;99.90
15676;DHT22;7938;47.666;9.434;2023-09-30T16:53:52;18.90;99.90
15676;DHT22;7938;47.666;9.434;2023-09-30T17:16:02;16.90;99.90
15676;DHT22;7938;47.666;9.434;2023-09-30T17:18:31;16.70;99.90
15676;DHT22;7938;47.666;9.434;2023-09-30T17:28:27;16.10;99.90
15676;DHT22;7938;47.666;9.434;2023-09-30T17:30:54;15.90;99.90
15676;DHT22;7938;47.666;9.434;2023-09-30T17:33:22;15.80;99.90
15676;DHT22;7938;47.666;9.434;2023-09-30T17:35:49;15.80;99.90
15676;DHT22;7938;47.666;9.434;2023-09-30T17:53:02;15.50;99.90
15676;DHT22;7938;47.666;9.434;2023-09-30T17:55:35;15.40;99.90
15676;DHT22;7938;47.666;9.434;2023-09-30T17:58:03;15.40;99.90
15676;DHT22;7938;47.666;9.434;2023-09-30T18:00:31;15.30;99.90
15676;DHT22;7938;47.666;9.434;2023-09-30T18:02:58;15.10;99.90
15676;DHT22;7938;47.666;9.434;2023-09-30T18:05:25;15.20;99.90
15676;DHT22;7938;47.666;9.434;2023-09-30T18:07:52;15.00;99.90
15676;DHT22;7938;47.666;9.434;2023-09-30T18:10:20;15.00;99.90
15676;DHT22;7938;47.666;9.434;2023-09-30T18:12:47;15.20;99.90
15676;DHT22;7938;47.666;9.434;2023-09-30T18:15:14;14.90;99.90
15676;DHT22;7938;47.666;9.434;2023-09-30T18:17:43;14.60;99.90
15676;DHT22;7938;47.666;9.434;2023-09-30T18:20:10;14.80;99.90
15676;DHT22;7938;47.666;9.434;2023-09-30T18:25:07;14.80;99.90
15676;DHT22;7938;47.666;9.434;2023-09-30T18:30:03;14.80;99.90
15676;DHT22;7938;47.666;9.434;2023-09-30T18:32:30;14.90;99.90
15676;DHT22;7938;47.666;9.434;2023-09-30T18:59:37;14.30;99.90
15676;DHT22;7938;47.666;9.434;2023-09-30T19:02:05;14.30;99.90
15676;DHT22;7938;47.666;9.434;2023-09-30T19:04:32;14.30;99.90
15676;DHT22;7938;47.666;9.434;2023-09-30T19:06:59;14.10;99.90
15676;DHT22;7938;47.666;9.434;2023-09-30T19:09:27;14.10;99.90
15676;DHT22;7938;47.666;9.434;2023-09-30T19:11:54;14.40;99.90
15676;DHT22;7938;47.666;9.434;2023-09-30T19:14:21;14.40;99.90
15676;DHT22;7938;47.666;9.434;2023-09-30T19:16:49;14.30;99.90
15676;DHT22;7938;47.666;9.434;2023-09-30T19:19:16;14.30;99.90
15676;DHT22;7938;47.666;9.434;2023-09-30T19:21:43;14.30;99.90
15676;DHT22;7938;47.666;9.434;2023-09-30T19:24:11;14.50;99.90
15676;DHT22;7938;47.666;9.434;2023-09-30T19:56:17;14.20;99.90
15676;DHT22;7938;47.666;9.434;2023-09-30T19:58:44;13.90;99.90
15676;DHT22;7938;47.666;9.434;2023-09-30T20:01:13;13.90;99.90
15676;DHT22;7938;47.666;9.434;2023-09-30T20:08:43;13.80;99.90
15676;DHT22;7938;47.666;9.434;2023-09-30T20:11:16;13.60;99.90
15676;DHT22;7938;47.666;9.434;2023-09-30T20:43:18;12.60;99.90
15676;DHT22;7938;47.666;9.434;2023-09-30T21:00:32;12.40;99.90
15676;DHT22;7938;47.666;9.434;2023-09-30T21:03:00;12.60;99.90
15676;DHT22;7938;47.666;9.434;2023-09-30T21:10:23;12.50;99.90
15676;DHT22;7938;47.666;9.434;2023-09-30T21:30:03;12.10;99.90
15676;DHT22;7938;47.666;9.434;2023-09-30T22:04:31;12.40;99.90
15676;DHT22;7938;47.666;9.434;2023-09-30T22:06:58;12.60;99.90
15676;DHT22;7938;47.666;9.434;2023-09-30T22:24:14;12.40;99.90
